Portada
METAR-TAF:

METAR-TAF

Aeroports :

Norfolk International Airport

Norfolk, Virgínia, Estats Units d'Amèrica

latitud: 36-54-13N, longitud: 076-11-31W, altitud: 8 m

Observació

L'informe es va fer fa 1 hora i 5 minuts, a les 04:51 UTC
Vent 12 kt del Sud-Oest
Temperatura 27°C
Humitat 84%
Pressió 1015 hPa
Visibilitat: 16.1 km
Cel clar

METAR: KORF 220451Z 22012KT 10SM CLR 27/24 A2997 RMK AO2 SLP147 T02670239 403280233

Hora: 01:56 (05:56 UTC)

Pronòstic

L'informe es va fer fa 26 minuts, a les 05:30 UTC
Pronòstic vàlid del 22 a les 06 UTC al 23 a les 06 UTC
Vent 10 kt del Sud-Oest
Visibilitat: 10 km
Núvols disperses a una alçada de 25000 ft
A partir de les 22 a les 1800 UTC
Vent 8 kt del Sud-Oest
Visibilitat: 10 km
Núvols disperses a una alçada de 5000 ft

TAF: KORF 220530Z 2206/2306 22010KT P6SM SCT250 FM221800 22008KT P6SM SCT050

Observacions i pronòstics meteorològics de més de 4000 aeroports (METAR i TAF).

Les estacions disponibles són els punts grocs i vermells al mapa.

Posi el ratolí al punt desitjat per veure el nom de l'estació.

Feu clic per veure les observacions i els pronòstics meteorològics.

Per canviar el mapa: feu clic els botons verds amb una creu de color negre per apropar; al botó verd amb un guió per allunyar la imatge; o en les fletxes verdes per a mapes adjacents.


METAR-TAF: